DAL342 KLGA-KATL
Flight info
| Callsign | DAL342 |
|---|---|
| Flight time | N/A |
| Altitude | 34000 |
| Route | LANNA J48 MOL FLASK OZZZI2 |
| Aircraft | A321/M-SDE3FGHIRWY/LB1 |
Departure
| Time | 2026-05-05 21:00 |
|---|---|
| Airport | LaGuardia Airport (KLGA) |
Arrival
| Time | N/A |
|---|---|
| Airport | Hartsfield Jackson Atlanta International Airport (KATL) |
| Time | Latitude | Longitude | Altitude | Speed | Heading |
|---|---|---|---|---|---|
| 2026-05-05 20:17 | 40.77197 | -73.86478 | 21 ft | 0 kts | 311° |
| 2026-05-05 20:45 | 40.77190 | -73.86468 | 19 ft | 3 kts | 316° |
| 2026-05-05 20:45 | 40.77175 | -73.86452 | 23 ft | 3 kts | 336° |
| 2026-05-05 20:45 | 40.77157 | -73.86445 | 22 ft | 3 kts | 9° |
| 2026-05-05 20:46 | 40.77142 | -73.86452 | 20 ft | 1 kts | 41° |
| 2026-05-05 20:46 | 40.77141 | -73.86454 | 20 ft | 0 kts | 42° |
| 2026-05-05 20:51 | 40.77153 | -73.86439 | 22 ft | 6 kts | 42° |
| 2026-05-05 20:51 | 40.77184 | -73.86402 | 20 ft | 5 kts | 42° |
| 2026-05-05 20:51 | 40.77208 | -73.86373 | 19 ft | 4 kts | 42° |
| 2026-05-05 20:52 | 40.77230 | -73.86347 | 19 ft | 6 kts | 42° |
| 2026-05-05 20:52 | 40.77271 | -73.86298 | 15 ft | 11 kts | 41° |
| 2026-05-05 20:52 | 40.77348 | -73.86263 | 13 ft | 11 kts | 346° |
| 2026-05-05 20:52 | 40.77390 | -73.86329 | 12 ft | 9 kts | 303° |
| 2026-05-05 20:53 | 40.77421 | -73.86394 | 13 ft | 8 kts | 302° |
| 2026-05-05 20:53 | 40.77447 | -73.86449 | 12 ft | 6 kts | 302° |
| 2026-05-05 20:53 | 40.77470 | -73.86498 | 13 ft | 6 kts | 302° |
| 2026-05-05 20:53 | 40.77493 | -73.86546 | 12 ft | 6 kts | 302° |
| 2026-05-05 20:54 | 40.77519 | -73.86600 | 12 ft | 10 kts | 302° |
| 2026-05-05 20:54 | 40.77556 | -73.86677 | 12 ft | 9 kts | 302° |
| 2026-05-05 20:54 | 40.77591 | -73.86749 | 12 ft | 9 kts | 302° |
| 2026-05-05 20:54 | 40.77624 | -73.86818 | 12 ft | 9 kts | 302° |
| 2026-05-05 20:55 | 40.77656 | -73.86885 | 12 ft | 8 kts | 302° |
| 2026-05-05 20:55 | 40.77682 | -73.86941 | 12 ft | 6 kts | 302° |
| 2026-05-05 20:55 | 40.77702 | -73.86982 | 13 ft | 4 kts | 302° |
| 2026-05-05 20:55 | 40.77723 | -73.87026 | 13 ft | 10 kts | 302° |
| 2026-05-05 20:56 | 40.77767 | -73.87118 | 13 ft | 11 kts | 302° |
| 2026-05-05 20:56 | 40.77806 | -73.87201 | 15 ft | 10 kts | 302° |
| 2026-05-05 20:56 | 40.77841 | -73.87275 | 13 ft | 10 kts | 302° |
| 2026-05-05 20:56 | 40.77885 | -73.87365 | 14 ft | 11 kts | 302° |
| 2026-05-05 20:57 | 40.77921 | -73.87441 | 17 ft | 9 kts | 302° |
| 2026-05-05 20:57 | 40.77958 | -73.87519 | 16 ft | 12 kts | 302° |
| 2026-05-05 20:57 | 40.78002 | -73.87611 | 15 ft | 12 kts | 302° |
| 2026-05-05 20:57 | 40.78042 | -73.87695 | 16 ft | 10 kts | 302° |
| 2026-05-05 20:58 | 40.78073 | -73.87759 | 17 ft | 8 kts | 302° |
| 2026-05-05 20:58 | 40.78115 | -73.87841 | 18 ft | 12 kts | 313° |
| 2026-05-05 20:58 | 40.78189 | -73.87868 | 9 ft | 11 kts | 2° |
| 2026-05-05 20:58 | 40.78215 | -73.87825 | 8 ft | 0 kts | 120° |
| 2026-05-05 20:59 | 40.78206 | -73.87805 | 8 ft | 20 kts | 121° |
| 2026-05-05 21:00 | 40.77965 | -73.87298 | 15 ft | 105 kts | 121° |
| 2026-05-05 21:00 | 40.77464 | -73.86246 | 150 ft | 153 kts | 123° |
| 2026-05-05 21:00 | 40.76919 | -73.85059 | 952 ft | 151 kts | 124° |
| 2026-05-05 21:00 | 40.76364 | -73.83858 | 1730 ft | 156 kts | 132° |
| 2026-05-05 21:01 | 40.75760 | -73.82562 | 2298 ft | 177 kts | 129° |
| 2026-05-05 21:01 | 40.75495 | -73.80898 | 2550 ft | 210 kts | 84° |
| 2026-05-05 21:01 | 40.76227 | -73.79121 | 2702 ft | 234 kts | 46° |
| 2026-05-05 21:01 | 40.77536 | -73.77730 | 2830 ft | 252 kts | 27° |
| 2026-05-05 21:02 | 40.79090 | -73.76480 | 3112 ft | 268 kts | 28° |
| 2026-05-05 21:02 | 40.80691 | -73.75221 | 3769 ft | 271 kts | 26° |
| 2026-05-05 21:02 | 40.82444 | -73.74045 | 4051 ft | 293 kts | 22° |
| 2026-05-05 21:02 | 40.84328 | -73.72942 | 4632 ft | 298 kts | 12° |
| 2026-05-05 21:03 | 40.86348 | -73.72714 | 5277 ft | 289 kts | 344° |
| 2026-05-05 21:03 | 40.88171 | -73.73639 | 5962 ft | 277 kts | 317° |
| 2026-05-05 21:03 | 40.89417 | -73.75464 | 6610 ft | 264 kts | 290° |
| 2026-05-05 21:03 | 40.89831 | -73.77744 | 7287 ft | 253 kts | 264° |
| 2026-05-05 21:04 | 40.89628 | -73.80044 | 8015 ft | 252 kts | 258° |
| 2026-05-05 21:04 | 40.89308 | -73.82324 | 8712 ft | 253 kts | 257° |
| 2026-05-05 21:04 | 40.88819 | -73.84567 | 9408 ft | 255 kts | 251° |
| 2026-05-05 21:04 | 40.88231 | -73.86793 | 10053 ft | 257 kts | 251° |
| 2026-05-05 21:05 | 40.87607 | -73.89091 | 10314 ft | 275 kts | 251° |
| 2026-05-05 21:05 | 40.86928 | -73.91555 | 10435 ft | 296 kts | 250° |
| 2026-05-05 21:05 | 40.86212 | -73.94150 | 10707 ft | 310 kts | 251° |
| 2026-05-05 21:05 | 40.85470 | -73.96848 | 11256 ft | 313 kts | 251° |
| 2026-05-05 21:06 | 40.84726 | -73.99558 | 11919 ft | 315 kts | 251° |
| 2026-05-05 21:06 | 40.83977 | -74.02297 | 12534 ft | 319 kts | 251° |
| 2026-05-05 21:06 | 40.83221 | -74.05070 | 13113 ft | 322 kts | 251° |
| 2026-05-05 21:06 | 40.82453 | -74.07882 | 13726 ft | 326 kts | 251° |
| 2026-05-05 21:07 | 40.81682 | -74.10702 | 14251 ft | 329 kts | 251° |
| 2026-05-05 21:07 | 40.80898 | -74.13562 | 14782 ft | 332 kts | 251° |
| 2026-05-05 21:07 | 40.80108 | -74.16440 | 15293 ft | 335 kts | 251° |
| 2026-05-05 21:07 | 40.79310 | -74.19348 | 15804 ft | 338 kts | 251° |
| 2026-05-05 21:08 | 40.78504 | -74.22278 | 16318 ft | 341 kts | 251° |
| 2026-05-05 21:08 | 40.77688 | -74.25238 | 16820 ft | 345 kts | 251° |
| 2026-05-05 21:08 | 40.76875 | -74.28183 | 17292 ft | 348 kts | 251° |
| 2026-05-05 21:08 | 40.76041 | -74.31192 | 17792 ft | 351 kts | 250° |
| 2026-05-05 21:09 | 40.75197 | -74.34229 | 18255 ft | 354 kts | 251° |
| 2026-05-05 21:09 | 40.74350 | -74.37296 | 18703 ft | 357 kts | 250° |
| 2026-05-05 21:09 | 40.73498 | -74.40372 | 19129 ft | 359 kts | 250° |
| 2026-05-05 21:09 | 40.72639 | -74.43476 | 19548 ft | 361 kts | 251° |
| 2026-05-05 21:10 | 40.71776 | -74.46594 | 19930 ft | 363 kts | 251° |
| 2026-05-05 21:10 | 40.70904 | -74.49730 | 20360 ft | 365 kts | 251° |
| 2026-05-05 21:10 | 40.70026 | -74.52880 | 20777 ft | 367 kts | 251° |
| 2026-05-05 21:10 | 40.69140 | -74.56054 | 21173 ft | 370 kts | 251° |
| 2026-05-05 21:11 | 40.68248 | -74.59242 | 21574 ft | 372 kts | 251° |
| 2026-05-05 21:11 | 40.67347 | -74.62452 | 21972 ft | 375 kts | 251° |
| 2026-05-05 21:11 | 40.66439 | -74.65683 | 22374 ft | 377 kts | 251° |
| 2026-05-05 21:11 | 40.65526 | -74.68935 | 22761 ft | 379 kts | 251° |
| 2026-05-05 21:12 | 40.64611 | -74.72195 | 23144 ft | 382 kts | 251° |
| 2026-05-05 21:12 | 40.63685 | -74.75494 | 23504 ft | 384 kts | 251° |
| 2026-05-05 21:12 | 40.62755 | -74.78802 | 23814 ft | 387 kts | 251° |
| 2026-05-05 21:12 | 40.61818 | -74.82129 | 24142 ft | 389 kts | 251° |
| 2026-05-05 21:13 | 40.60879 | -74.85476 | 24450 ft | 391 kts | 251° |
| 2026-05-05 21:13 | 40.59934 | -74.88838 | 24758 ft | 393 kts | 251° |
| 2026-05-05 21:13 | 40.58981 | -74.92215 | 25083 ft | 395 kts | 251° |
| 2026-05-05 21:13 | 40.58015 | -74.95608 | 25386 ft | 397 kts | 251° |
| 2026-05-05 21:14 | 40.57041 | -74.99018 | 25669 ft | 399 kts | 251° |
| 2026-05-05 21:14 | 40.55894 | -75.02362 | 25951 ft | 404 kts | 243° |
| 2026-05-05 21:14 | 40.54306 | -75.05436 | 26236 ft | 410 kts | 233° |
| 2026-05-05 21:14 | 40.52503 | -75.08286 | 26563 ft | 411 kts | 233° |
| 2026-05-05 21:15 | 40.50670 | -75.11185 | 26883 ft | 412 kts | 233° |
| 2026-05-05 21:15 | 40.48834 | -75.14096 | 27187 ft | 414 kts | 233° |
| 2026-05-05 21:15 | 40.46998 | -75.17015 | 27473 ft | 416 kts | 233° |
| 2026-05-05 21:15 | 40.45147 | -75.19954 | 27738 ft | 418 kts | 233° |
| 2026-05-05 21:16 | 40.43289 | -75.22899 | 28005 ft | 420 kts | 233° |
| 2026-05-05 21:16 | 40.41421 | -75.25856 | 28266 ft | 422 kts | 233° |
| 2026-05-05 21:16 | 40.40151 | -75.27862 | 28429 ft | 423 kts | 233° |
| 2026-05-05 21:16 | 40.38266 | -75.30837 | 28635 ft | 426 kts | 234° |
| 2026-05-05 21:17 | 40.36388 | -75.33797 | 28857 ft | 428 kts | 234° |
| 2026-05-05 21:17 | 40.34472 | -75.36809 | 29088 ft | 430 kts | 234° |
| 2026-05-05 21:17 | 40.32551 | -75.39830 | 29324 ft | 432 kts | 234° |
| 2026-05-05 21:17 | 40.30623 | -75.42860 | 29592 ft | 434 kts | 233° |
| 2026-05-05 21:18 | 40.28691 | -75.45894 | 29916 ft | 434 kts | 233° |
| 2026-05-05 21:18 | 40.26757 | -75.48924 | 30228 ft | 432 kts | 233° |
| 2026-05-05 21:18 | 40.24828 | -75.51940 | 30562 ft | 431 kts | 234° |
| 2026-05-05 21:18 | 40.22909 | -75.54942 | 30885 ft | 429 kts | 235° |
| 2026-05-05 21:19 | 40.21172 | -75.58092 | 31161 ft | 426 kts | 241° |
| 2026-05-05 21:19 | 40.19545 | -75.61342 | 31446 ft | 425 kts | 241° |
| 2026-05-05 21:19 | 40.17921 | -75.64587 | 31767 ft | 424 kts | 242° |
| 2026-05-05 21:19 | 40.16307 | -75.67812 | 32096 ft | 423 kts | 242° |
| 2026-05-05 21:20 | 40.14712 | -75.70988 | 32406 ft | 422 kts | 242° |
| 2026-05-05 21:20 | 40.13099 | -75.74186 | 32741 ft | 421 kts | 243° |
| 2026-05-05 21:20 | 40.11484 | -75.77382 | 33077 ft | 419 kts | 243° |
| 2026-05-05 21:20 | 40.09875 | -75.80558 | 33437 ft | 417 kts | 243° |
| 2026-05-05 21:21 | 40.08282 | -75.83704 | 33815 ft | 414 kts | 243° |
| 2026-05-05 21:21 | 40.06699 | -75.86830 | 34128 ft | 412 kts | 243° |
| 2026-05-05 21:21 | 40.05116 | -75.89957 | 34385 ft | 412 kts | 243° |
| 2026-05-05 21:21 | 40.03539 | -75.93076 | 34564 ft | 412 kts | 244° |
| 2026-05-05 21:22 | 40.01957 | -75.96204 | 34741 ft | 413 kts | 243° |
| 2026-05-05 21:22 | 40.00395 | -75.99290 | 34944 ft | 413 kts | 243° |
| 2026-05-05 21:22 | 39.98810 | -76.02410 | 35157 ft | 413 kts | 243° |
| 2026-05-05 21:22 | 39.97215 | -76.05538 | 35372 ft | 413 kts | 243° |
| 2026-05-05 21:23 | 39.95620 | -76.08658 | 35563 ft | 413 kts | 243° |
| 2026-05-05 21:23 | 39.94027 | -76.11772 | 35764 ft | 413 kts | 243° |
| 2026-05-05 21:23 | 39.90846 | -76.17993 | 35871 ft | 411 kts | 243° |
| 2026-05-05 21:24 | 39.87679 | -76.24185 | 35869 ft | 410 kts | 243° |
| 2026-05-05 21:24 | 39.84533 | -76.30325 | 35865 ft | 410 kts | 243° |
| 2026-05-05 21:25 | 39.81361 | -76.36499 | 35865 ft | 409 kts | 243° |
| 2026-05-05 21:25 | 39.78192 | -76.42657 | 35865 ft | 409 kts | 243° |
| 2026-05-05 21:26 | 39.75036 | -76.48770 | 35870 ft | 409 kts | 243° |
| 2026-05-05 21:26 | 39.71859 | -76.54916 | 35890 ft | 409 kts | 243° |
| 2026-05-05 21:27 | 39.68688 | -76.61037 | 35869 ft | 408 kts | 243° |
| 2026-05-05 21:27 | 39.65518 | -76.67148 | 35872 ft | 407 kts | 243° |
| 2026-05-05 21:28 | 39.62351 | -76.73258 | 35873 ft | 407 kts | 243° |
| 2026-05-05 21:28 | 39.59197 | -76.79314 | 35881 ft | 407 kts | 243° |
| 2026-05-05 21:29 | 39.56019 | -76.85401 | 35889 ft | 407 kts | 243° |
| 2026-05-05 21:29 | 39.52837 | -76.91477 | 35901 ft | 407 kts | 243° |
| 2026-05-05 21:30 | 39.49541 | -76.97451 | 35870 ft | 413 kts | 236° |
| 2026-05-05 21:30 | 39.45155 | -77.02450 | 35877 ft | 423 kts | 227° |
| 2026-05-05 21:31 | 39.40572 | -77.07250 | 35890 ft | 424 kts | 227° |
| 2026-05-05 21:31 | 39.35997 | -77.12059 | 35912 ft | 424 kts | 228° |
| 2026-05-05 21:32 | 39.31419 | -77.16878 | 35892 ft | 424 kts | 227° |
| 2026-05-05 21:32 | 39.26868 | -77.21647 | 35891 ft | 425 kts | 227° |
| 2026-05-05 21:33 | 39.22258 | -77.26466 | 35910 ft | 425 kts | 228° |
| 2026-05-05 21:33 | 39.17658 | -77.31273 | 35919 ft | 425 kts | 228° |
| 2026-05-05 21:34 | 39.13058 | -77.36066 | 35924 ft | 425 kts | 228° |
| 2026-05-05 21:34 | 39.08447 | -77.40853 | 35882 ft | 425 kts | 227° |
| 2026-05-05 21:35 | 39.03832 | -77.45645 | 35894 ft | 426 kts | 227° |
| 2026-05-05 21:35 | 38.99243 | -77.50407 | 35891 ft | 426 kts | 227° |
| 2026-05-05 21:36 | 38.94623 | -77.55190 | 35895 ft | 426 kts | 227° |
| 2026-05-05 21:36 | 38.90000 | -77.59966 | 35882 ft | 426 kts | 227° |
| 2026-05-05 21:37 | 38.85372 | -77.64740 | 35912 ft | 426 kts | 227° |
| 2026-05-05 21:37 | 38.80750 | -77.69501 | 35919 ft | 426 kts | 228° |
| 2026-05-05 21:38 | 38.76145 | -77.74237 | 35917 ft | 425 kts | 227° |
| 2026-05-05 21:38 | 38.71518 | -77.78983 | 35918 ft | 425 kts | 227° |
| 2026-05-05 21:39 | 38.66878 | -77.83729 | 35908 ft | 426 kts | 227° |
| 2026-05-05 21:39 | 38.62729 | -77.88882 | 35914 ft | 410 kts | 242° |
| 2026-05-05 21:40 | 38.59324 | -77.94725 | 35915 ft | 410 kts | 242° |
| 2026-05-05 21:40 | 38.55903 | -78.00561 | 35926 ft | 409 kts | 242° |
| 2026-05-05 21:41 | 38.52492 | -78.06353 | 35926 ft | 409 kts | 242° |
| 2026-05-05 21:41 | 38.49061 | -78.12165 | 35898 ft | 409 kts | 242° |
| 2026-05-05 21:42 | 38.45633 | -78.17967 | 35893 ft | 409 kts | 242° |
| 2026-05-05 21:42 | 38.42201 | -78.23768 | 35899 ft | 410 kts | 241° |
| 2026-05-05 21:43 | 38.38784 | -78.29530 | 35903 ft | 410 kts | 241° |
| 2026-05-05 21:43 | 38.35344 | -78.35322 | 35914 ft | 410 kts | 241° |
| 2026-05-05 21:44 | 38.31903 | -78.41121 | 35922 ft | 410 kts | 242° |
| 2026-05-05 21:44 | 38.28451 | -78.46922 | 35906 ft | 411 kts | 241° |
| 2026-05-05 21:45 | 38.24987 | -78.52719 | 35901 ft | 412 kts | 241° |
| 2026-05-05 21:45 | 38.21511 | -78.58523 | 35917 ft | 412 kts | 241° |
| 2026-05-05 21:46 | 38.18041 | -78.64325 | 35908 ft | 412 kts | 241° |
| 2026-05-05 21:46 | 38.14593 | -78.70083 | 35920 ft | 412 kts | 241° |
| 2026-05-05 21:47 | 38.11112 | -78.75870 | 35935 ft | 413 kts | 241° |
| 2026-05-05 21:47 | 38.07619 | -78.81660 | 35937 ft | 412 kts | 241° |
| 2026-05-05 21:48 | 38.04132 | -78.87450 | 35941 ft | 412 kts | 241° |
| 2026-05-05 21:48 | 38.00647 | -78.93220 | 35939 ft | 412 kts | 241° |
| 2026-05-05 21:49 | 37.97152 | -78.98992 | 35942 ft | 412 kts | 241° |
| 2026-05-05 21:49 | 37.93655 | -79.04758 | 35942 ft | 413 kts | 241° |
| 2026-05-05 21:50 | 37.90164 | -79.10489 | 35963 ft | 413 kts | 240° |
| 2026-05-05 21:50 | 37.86411 | -79.16051 | 35987 ft | 418 kts | 237° |
| 2026-05-05 21:51 | 37.82432 | -79.21441 | 36000 ft | 418 kts | 236° |
| 2026-05-05 21:51 | 37.78468 | -79.26807 | 36014 ft | 417 kts | 236° |
| 2026-05-05 21:52 | 37.72623 | -79.34889 | 36020 ft | 416 kts | 237° |
| 2026-05-05 21:53 | 37.68735 | -79.40300 | 35981 ft | 416 kts | 237° |
| 2026-05-05 21:53 | 37.64827 | -79.45720 | 35981 ft | 417 kts | 237° |
| 2026-05-05 21:54 | 37.60905 | -79.51119 | 35980 ft | 417 kts | 237° |
| 2026-05-05 21:54 | 37.57009 | -79.56481 | 35964 ft | 416 kts | 237° |
| 2026-05-05 21:55 | 37.53098 | -79.61867 | 35952 ft | 417 kts | 237° |
| 2026-05-05 21:55 | 37.49177 | -79.67262 | 35923 ft | 417 kts | 237° |
| 2026-05-05 21:56 | 37.45244 | -79.72657 | 35950 ft | 418 kts | 237° |
| 2026-05-05 21:56 | 37.41301 | -79.78048 | 35967 ft | 418 kts | 237° |
| 2026-05-05 21:57 | 37.37355 | -79.83423 | 35992 ft | 418 kts | 237° |
| 2026-05-05 21:57 | 37.33437 | -79.88764 | 36004 ft | 417 kts | 237° |
| 2026-05-05 21:58 | 37.29499 | -79.94121 | 36007 ft | 417 kts | 237° |
| 2026-05-05 21:58 | 37.25566 | -79.99472 | 35941 ft | 417 kts | 237° |
| 2026-05-05 21:59 | 37.21624 | -80.04822 | 35956 ft | 418 kts | 237° |
| 2026-05-05 21:59 | 37.17667 | -80.10183 | 35975 ft | 419 kts | 237° |
| 2026-05-05 22:00 | 37.13701 | -80.15539 | 35988 ft | 419 kts | 237° |
| 2026-05-05 22:00 | 37.09731 | -80.20897 | 36012 ft | 419 kts | 238° |
| 2026-05-05 22:01 | 37.06405 | -80.25371 | 35989 ft | 419 kts | 238° |
| 2026-05-05 22:01 | 37.02463 | -80.30679 | 36001 ft | 419 kts | 238° |
| 2026-05-05 22:02 | 36.98446 | -80.35988 | 36169 ft | 421 kts | 237° |
| 2026-05-05 22:02 | 36.96400 | -80.38603 | 35987 ft | 421 kts | 236° |
| 2026-05-05 22:02 | 36.94340 | -80.41207 | 35986 ft | 420 kts | 236° |
| 2026-05-05 22:03 | 36.90221 | -80.46416 | 35976 ft | 421 kts | 236° |
| 2026-05-05 22:03 | 36.86127 | -80.51632 | 35961 ft | 421 kts | 236° |
| 2026-05-05 22:04 | 36.82029 | -80.56856 | 35963 ft | 420 kts | 237° |
| 2026-05-05 22:04 | 36.77974 | -80.62016 | 35813 ft | 417 kts | 237° |
| 2026-05-05 22:04 | 36.75939 | -80.64604 | 35268 ft | 418 kts | 236° |
| 2026-05-05 22:05 | 36.73900 | -80.67198 | 34630 ft | 419 kts | 236° |
| 2026-05-05 22:05 | 36.71857 | -80.69792 | 34176 ft | 417 kts | 236° |
| 2026-05-05 22:05 | 36.69825 | -80.72366 | 34005 ft | 419 kts | 235° |
| 2026-05-05 22:06 | 36.65720 | -80.77573 | 34018 ft | 423 kts | 235° |
| 2026-05-05 22:06 | 36.61589 | -80.82803 | 34014 ft | 426 kts | 235° |
| 2026-05-05 22:07 | 36.57419 | -80.88066 | 34002 ft | 427 kts | 235° |
| 2026-05-05 22:07 | 36.53247 | -80.93320 | 33969 ft | 424 kts | 235° |
| 2026-05-05 22:08 | 36.49089 | -80.98546 | 33995 ft | 425 kts | 235° |
| 2026-05-05 22:08 | 36.44925 | -81.03777 | 34012 ft | 425 kts | 235° |
| 2026-05-05 22:09 | 36.40763 | -81.09003 | 34006 ft | 426 kts | 235° |
| 2026-05-05 22:09 | 36.36585 | -81.14225 | 34053 ft | 426 kts | 234° |
| 2026-05-05 22:10 | 36.32411 | -81.19431 | 34042 ft | 426 kts | 235° |
| 2026-05-05 22:10 | 36.28244 | -81.24643 | 34044 ft | 425 kts | 235° |
| 2026-05-05 22:11 | 36.24103 | -81.29816 | 34050 ft | 425 kts | 235° |
| 2026-05-05 22:11 | 36.19948 | -81.34991 | 34019 ft | 423 kts | 235° |
| 2026-05-05 22:12 | 36.15793 | -81.40157 | 34007 ft | 423 kts | 235° |
| 2026-05-05 22:12 | 36.11640 | -81.45325 | 33990 ft | 423 kts | 235° |
| 2026-05-05 22:13 | 36.07489 | -81.50478 | 33971 ft | 423 kts | 235° |
| 2026-05-05 22:13 | 36.03326 | -81.55634 | 33965 ft | 423 kts | 235° |
| 2026-05-05 22:14 | 35.99160 | -81.60774 | 33966 ft | 423 kts | 235° |
| 2026-05-05 22:14 | 35.95000 | -81.65913 | 33939 ft | 423 kts | 234° |
| 2026-05-05 22:15 | 35.90871 | -81.71005 | 33975 ft | 422 kts | 234° |
| 2026-05-05 22:15 | 35.86718 | -81.76121 | 33976 ft | 421 kts | 234° |
| 2026-05-05 22:16 | 35.82568 | -81.81228 | 34027 ft | 422 kts | 234° |
| 2026-05-05 22:16 | 35.78407 | -81.86325 | 34014 ft | 422 kts | 234° |
| 2026-05-05 22:17 | 35.74206 | -81.91381 | 34005 ft | 423 kts | 233° |
| 2026-05-05 22:17 | 35.69971 | -81.96410 | 33997 ft | 423 kts | 233° |
| 2026-05-05 22:18 | 35.65749 | -82.01442 | 34005 ft | 423 kts | 234° |
| 2026-05-05 22:18 | 35.61561 | -82.06450 | 34007 ft | 423 kts | 234° |
| 2026-05-05 22:19 | 35.57340 | -82.11483 | 34011 ft | 423 kts | 233° |
| 2026-05-05 22:19 | 35.53118 | -82.16505 | 34011 ft | 423 kts | 233° |
| 2026-05-05 22:20 | 35.48883 | -82.21523 | 33991 ft | 423 kts | 233° |
| 2026-05-05 22:20 | 35.44647 | -82.26545 | 33998 ft | 424 kts | 233° |
| 2026-05-05 22:21 | 35.40422 | -82.31594 | 34009 ft | 423 kts | 234° |
| 2026-05-05 22:21 | 35.36301 | -82.36730 | 33988 ft | 422 kts | 235° |
| 2026-05-05 22:22 | 35.32208 | -82.41885 | 34011 ft | 422 kts | 235° |
| 2026-05-05 22:22 | 35.28103 | -82.46997 | 34001 ft | 421 kts | 234° |
| 2026-05-05 22:23 | 35.23981 | -82.52090 | 34032 ft | 422 kts | 234° |
| 2026-05-05 22:23 | 35.19859 | -82.57170 | 34027 ft | 424 kts | 234° |
| 2026-05-05 22:24 | 35.15710 | -82.62281 | 34018 ft | 423 kts | 234° |
| 2026-05-05 22:24 | 35.11508 | -82.67341 | 34008 ft | 424 kts | 233° |
| 2026-05-05 22:25 | 35.07249 | -82.72359 | 33927 ft | 426 kts | 233° |
| 2026-05-05 22:25 | 35.05120 | -82.74861 | 33651 ft | 424 kts | 233° |
| 2026-05-05 22:25 | 35.02999 | -82.77357 | 33359 ft | 422 kts | 233° |
| 2026-05-05 22:25 | 35.00888 | -82.79855 | 33085 ft | 422 kts | 233° |
| 2026-05-05 22:26 | 34.98787 | -82.82346 | 32827 ft | 421 kts | 233° |
| 2026-05-05 22:26 | 34.96690 | -82.84830 | 32562 ft | 419 kts | 233° |
| 2026-05-05 22:26 | 34.94599 | -82.87301 | 32315 ft | 417 kts | 232° |
| 2026-05-05 22:26 | 34.92544 | -82.89724 | 32072 ft | 416 kts | 232° |
| 2026-05-05 22:27 | 34.90455 | -82.92160 | 31815 ft | 415 kts | 232° |
| 2026-05-05 22:27 | 34.88366 | -82.94578 | 31565 ft | 414 kts | 232° |
| 2026-05-05 22:27 | 34.86276 | -82.96989 | 31323 ft | 412 kts | 231° |
| 2026-05-05 22:27 | 34.84200 | -82.99382 | 31081 ft | 411 kts | 231° |
| 2026-05-05 22:28 | 34.82129 | -83.01770 | 30843 ft | 409 kts | 231° |
| 2026-05-05 22:28 | 34.80069 | -83.04147 | 30605 ft | 408 kts | 231° |
| 2026-05-05 22:28 | 34.78014 | -83.06519 | 30348 ft | 407 kts | 231° |
| 2026-05-05 22:28 | 34.75972 | -83.08875 | 29931 ft | 404 kts | 230° |
| 2026-05-05 22:29 | 34.73933 | -83.11225 | 29358 ft | 400 kts | 230° |
| 2026-05-05 22:29 | 34.71939 | -83.13514 | 28855 ft | 389 kts | 230° |
| 2026-05-05 22:29 | 34.69994 | -83.15738 | 28345 ft | 379 kts | 230° |
| 2026-05-05 22:29 | 34.68106 | -83.17904 | 27859 ft | 368 kts | 230° |
| 2026-05-05 22:30 | 34.66270 | -83.20017 | 27383 ft | 359 kts | 230° |
| 2026-05-05 22:30 | 34.64460 | -83.22106 | 26920 ft | 359 kts | 230° |
| 2026-05-05 22:30 | 34.62656 | -83.24189 | 26453 ft | 357 kts | 230° |
| 2026-05-05 22:30 | 34.60860 | -83.26254 | 26002 ft | 355 kts | 229° |
| 2026-05-05 22:31 | 34.59069 | -83.28305 | 25554 ft | 353 kts | 229° |
| 2026-05-05 22:31 | 34.57290 | -83.30340 | 25109 ft | 350 kts | 229° |
| 2026-05-05 22:31 | 34.55520 | -83.32365 | 24672 ft | 348 kts | 229° |
| 2026-05-05 22:31 | 34.53767 | -83.34376 | 24223 ft | 347 kts | 229° |
| 2026-05-05 22:32 | 34.52023 | -83.36382 | 23804 ft | 344 kts | 229° |
| 2026-05-05 22:32 | 34.50312 | -83.38351 | 23312 ft | 342 kts | 229° |
| 2026-05-05 22:32 | 34.48591 | -83.40332 | 22842 ft | 340 kts | 229° |
| 2026-05-05 22:32 | 34.46881 | -83.42295 | 22395 ft | 338 kts | 229° |
| 2026-05-05 22:33 | 34.45181 | -83.44245 | 21933 ft | 335 kts | 229° |
| 2026-05-05 22:33 | 34.43497 | -83.46182 | 21495 ft | 333 kts | 229° |
| 2026-05-05 22:33 | 34.41818 | -83.48117 | 21038 ft | 333 kts | 229° |
| 2026-05-05 22:33 | 34.40140 | -83.50047 | 20592 ft | 332 kts | 229° |
| 2026-05-05 22:34 | 34.38461 | -83.51972 | 20141 ft | 332 kts | 229° |
| 2026-05-05 22:34 | 34.36783 | -83.53890 | 19693 ft | 332 kts | 229° |
| 2026-05-05 22:34 | 34.35106 | -83.55806 | 19238 ft | 332 kts | 229° |
| 2026-05-05 22:34 | 34.33428 | -83.57720 | 18784 ft | 331 kts | 229° |
| 2026-05-05 22:35 | 34.31753 | -83.59635 | 18336 ft | 331 kts | 229° |
| 2026-05-05 22:35 | 34.30079 | -83.61551 | 17823 ft | 330 kts | 228° |
| 2026-05-05 22:35 | 34.28409 | -83.63448 | 17386 ft | 329 kts | 227° |
| 2026-05-05 22:35 | 34.26713 | -83.65299 | 16947 ft | 328 kts | 226° |
| 2026-05-05 22:36 | 34.25006 | -83.67112 | 16498 ft | 327 kts | 226° |
| 2026-05-05 22:36 | 34.23313 | -83.68890 | 16064 ft | 326 kts | 225° |
| 2026-05-05 22:36 | 34.21605 | -83.70683 | 15637 ft | 325 kts | 225° |
| 2026-05-05 22:36 | 34.19901 | -83.72476 | 15209 ft | 324 kts | 225° |
| 2026-05-05 22:37 | 34.18211 | -83.74265 | 14781 ft | 323 kts | 225° |
| 2026-05-05 22:37 | 34.16525 | -83.76053 | 14342 ft | 322 kts | 225° |
| 2026-05-05 22:37 | 34.14843 | -83.77840 | 13917 ft | 321 kts | 225° |
| 2026-05-05 22:37 | 34.13166 | -83.79623 | 13456 ft | 321 kts | 225° |
| 2026-05-05 22:38 | 34.11942 | -83.80920 | 13128 ft | 319 kts | 225° |
| 2026-05-05 22:38 | 34.10276 | -83.82682 | 12682 ft | 317 kts | 225° |
| 2026-05-05 22:38 | 34.08639 | -83.84415 | 12254 ft | 315 kts | 225° |